Hauptseite
METAR-TAF:

METAR-TAF

Flughäfen :

Flughafen Castres-Mazamet

Castres, Frankreich

Breite: 43-33-25N, Länge: 2-17-21E, Höhe: 239 m

Beobachtung

Neuester Wetterbericht von vor 33 Minuten, um 03:30 UTC
Wind 9 kt aus Ost/Südost
Temperatur 14°C
Luftfeuchtigkeit 82%
Luftdruck 1021 hPa
Sichtweite 10 km oder mehr
keine Wolken unter 1500 m und keine Kumulonimbus oder Gewitterwolken

METAR: LFCK 160330Z AUTO 11009KT CAVOK 14/11 Q1021

Zeit: 05:03 (04:03 UTC)

Prognose

Neuester Wetterbericht von vor 11 Stunden und 3 Minuten, um 17:00 UTC
Gültige Prognose vom 15 um 18 UTC bis 16 um 03 UTC
Wind 20 kt aus Ost/Südost
Sichtweite 10 km oder mehr
keine Wolken unter 1500 m und keine Kumulonimbus oder Gewitterwolken
Übergehend zu
vom 16 um 00 UTC bis 16 um 02 UTC
Wind 10 kt aus Ost/Südost

TAF: LFCK 151700Z 1518/1603 12020KT CAVOK BECMG 1600/1602 12010KT

Wetterbeobachtungen und Prognosen von mehr als 4000 Flughäfen (METAR und TAF Bericht).

Die verfügbaren Stationen werden durch gelbe und rote Markierungen auf der Karte dargestellt.

Führen Sie die Maus auf sie, um den Namen der Station zu sehen.

Darauf klicken, um die Beobachtung von Wetterbeobachtungen und Prognosen zu sehen.

Um die Karte zu ändern : klicken Sie auf den grünen Tasten mit einem schwarzen Kreuz Zum Vergrößern, auf den grünen Button mit einem Gedankenstrich zu verkleinern, oder auf die grünen Pfeile für benachbarte Karten.


METAR-TAF: